sensor_id;sensor_type;location;lat;lon;timestamp;P1;durP1;ratioP1;P2;durP2;ratioP2
75340;SDS011;64091;47.562;18.920;2022-11-02T00:00:19;14.70;;;7.40;;
75340;SDS011;64091;47.562;18.920;2022-11-02T00:02:44;15.00;;;8.30;;
75340;SDS011;64091;47.562;18.920;2022-11-02T00:05:10;15.20;;;7.70;;
75340;SDS011;64091;47.562;18.920;2022-11-02T00:07:37;12.70;;;6.80;;
75340;SDS011;64091;47.562;18.920;2022-11-02T00:10:02;13.90;;;7.70;;
75340;SDS011;64091;47.562;18.920;2022-11-02T00:12:28;15.10;;;8.20;;
75340;SDS011;64091;47.562;18.920;2022-11-02T00:14:53;16.70;;;9.30;;
75340;SDS011;64091;47.562;18.920;2022-11-02T00:17:19;18.60;;;10.60;;
75340;SDS011;64091;47.562;18.920;2022-11-02T00:19:44;17.50;;;11.40;;
75340;SDS011;64091;47.562;18.920;2022-11-02T00:22:09;16.50;;;9.20;;
75340;SDS011;64091;47.562;18.920;2022-11-02T00:24:35;17.50;;;9.40;;
75340;SDS011;64091;47.562;18.920;2022-11-02T00:27:00;19.70;;;11.20;;
75340;SDS011;64091;47.562;18.920;2022-11-02T00:29:26;19.70;;;10.90;;
75340;SDS011;64091;47.562;18.920;2022-11-02T00:31:52;31.80;;;17.60;;
75340;SDS011;64091;47.562;18.920;2022-11-02T00:34:17;20.20;;;10.10;;
75340;SDS011;64091;47.562;18.920;2022-11-02T00:36:42;17.00;;;9.40;;
75340;SDS011;64091;47.562;18.920;2022-11-02T00:39:08;18.10;;;11.80;;
75340;SDS011;64091;47.562;18.920;2022-11-02T00:41:33;39.00;;;22.40;;
75340;SDS011;64091;47.562;18.920;2022-11-02T00:43:59;23.40;;;14.20;;
75340;SDS011;64091;47.562;18.920;2022-11-02T00:46:24;20.50;;;11.60;;
75340;SDS011;64091;47.562;18.920;2022-11-02T00:48:49;21.10;;;10.80;;
75340;SDS011;64091;47.562;18.920;2022-11-02T00:51:15;20.40;;;11.50;;
75340;SDS011;64091;47.562;18.920;2022-11-02T00:53:40;18.00;;;10.80;;
75340;SDS011;64091;47.562;18.920;2022-11-02T00:56:06;20.10;;;11.30;;
75340;SDS011;64091;47.562;18.920;2022-11-02T00:58:31;20.30;;;11.80;;
75340;SDS011;64091;47.562;18.920;2022-11-02T01:00:57;18.80;;;10.90;;
75340;SDS011;64091;47.562;18.920;2022-11-02T01:03:22;27.90;;;16.60;;
75340;SDS011;64091;47.562;18.920;2022-11-02T01:05:47;36.90;;;22.10;;
75340;SDS011;64091;47.562;18.920;2022-11-02T01:08:13;21.90;;;12.40;;
75340;SDS011;64091;47.562;18.920;2022-11-02T01:10:38;21.10;;;12.90;;
75340;SDS011;64091;47.562;18.920;2022-11-02T01:13:04;18.80;;;12.30;;
75340;SDS011;64091;47.562;18.920;2022-11-02T01:15:29;19.10;;;13.10;;
75340;SDS011;64091;47.562;18.920;2022-11-02T01:17:54;21.20;;;14.10;;
75340;SDS011;64091;47.562;18.920;2022-11-02T01:20:20;21.20;;;12.10;;
75340;SDS011;64091;47.562;18.920;2022-11-02T01:22:45;22.20;;;12.80;;
75340;SDS011;64091;47.562;18.920;2022-11-02T01:25:11;20.20;;;12.60;;
75340;SDS011;64091;47.562;18.920;2022-11-02T01:27:36;21.90;;;12.40;;
75340;SDS011;64091;47.562;18.920;2022-11-02T01:30:03;22.40;;;12.90;;
75340;SDS011;64091;47.562;18.920;2022-11-02T01:32:29;18.80;;;12.70;;
75340;SDS011;64091;47.562;18.920;2022-11-02T01:34:54;22.10;;;13.70;;
75340;SDS011;64091;47.562;18.920;2022-11-02T01:37:20;22.80;;;13.20;;
75340;SDS011;64091;47.562;18.920;2022-11-02T01:39:45;21.00;;;12.40;;
75340;SDS011;64091;47.562;18.920;2022-11-02T01:42:21;18.90;;;12.30;;
75340;SDS011;64091;47.562;18.920;2022-11-02T01:44:48;22.70;;;12.80;;
75340;SDS011;64091;47.562;18.920;2022-11-02T01:47:18;19.20;;;12.20;;
75340;SDS011;64091;47.562;18.920;2022-11-02T01:49:48;21.20;;;13.10;;
75340;SDS011;64091;47.562;18.920;2022-11-02T01:52:28;20.90;;;12.80;;
75340;SDS011;64091;47.562;18.920;2022-11-02T01:54:58;21.60;;;13.90;;
75340;SDS011;64091;47.562;18.920;2022-11-02T01:57:27;20.40;;;13.00;;
75340;SDS011;64091;47.562;18.920;2022-11-02T02:00:04;20.30;;;13.30;;
75340;SDS011;64091;47.562;18.920;2022-11-02T02:02:33;20.60;;;12.40;;
75340;SDS011;64091;47.562;18.920;2022-11-02T02:05:05;20.70;;;13.00;;
75340;SDS011;64091;47.562;18.920;2022-11-02T02:07:32;20.20;;;12.70;;
75340;SDS011;64091;47.562;18.920;2022-11-02T02:10:01;19.70;;;12.20;;
75340;SDS011;64091;47.562;18.920;2022-11-02T02:12:26;20.60;;;13.70;;
75340;SDS011;64091;47.562;18.920;2022-11-02T02:14:52;20.50;;;12.40;;
75340;SDS011;64091;47.562;18.920;2022-11-02T02:17:38;20.20;;;12.80;;
75340;SDS011;64091;47.562;18.920;2022-11-02T02:28:53;19.10;;;12.30;;
75340;SDS011;64091;47.562;18.920;2022-11-02T02:31:32;20.50;;;12.90;;
75340;SDS011;64091;47.562;18.920;2022-11-02T02:39:39;18.00;;;11.50;;
75340;SDS011;64091;47.562;18.920;2022-11-02T02:42:30;20.20;;;12.30;;
75340;SDS011;64091;47.562;18.920;2022-11-02T02:45:00;17.10;;;10.30;;
75340;SDS011;64091;47.562;18.920;2022-11-02T02:47:29;15.30;;;9.90;;
75340;SDS011;64091;47.562;18.920;2022-11-02T02:49:58;17.50;;;10.70;;
75340;SDS011;64091;47.562;18.920;2022-11-02T02:52:37;18.30;;;10.80;;
75340;SDS011;64091;47.562;18.920;2022-11-02T02:55:05;19.50;;;11.40;;
75340;SDS011;64091;47.562;18.920;2022-11-02T02:57:31;15.30;;;10.10;;
75340;SDS011;64091;47.562;18.920;2022-11-02T02:59:58;16.70;;;10.10;;
75340;SDS011;64091;47.562;18.920;2022-11-02T03:02:25;18.60;;;11.90;;
75340;SDS011;64091;47.562;18.920;2022-11-02T03:04:54;19.20;;;11.30;;
75340;SDS011;64091;47.562;18.920;2022-11-02T03:07:20;18.00;;;10.40;;
75340;SDS011;64091;47.562;18.920;2022-11-02T03:09:49;16.30;;;10.10;;
75340;SDS011;64091;47.562;18.920;2022-11-02T03:20:25;17.70;;;12.40;;
75340;SDS011;64091;47.562;18.920;2022-11-02T03:25:38;21.20;;;12.90;;
75340;SDS011;64091;47.562;18.920;2022-11-02T03:28:38;21.60;;;12.80;;
75340;SDS011;64091;47.562;18.920;2022-11-02T03:33:57;22.90;;;13.40;;
75340;SDS011;64091;47.562;18.920;2022-11-02T03:36:50;21.40;;;13.00;;
75340;SDS011;64091;47.562;18.920;2022-11-02T03:39:23;19.50;;;12.30;;
75340;SDS011;64091;47.562;18.920;2022-11-02T03:42:00;21.80;;;14.50;;
75340;SDS011;64091;47.562;18.920;2022-11-02T03:44:28;22.20;;;13.30;;
75340;SDS011;64091;47.562;18.920;2022-11-02T03:46:56;23.50;;;14.30;;
75340;SDS011;64091;47.562;18.920;2022-11-02T03:49:23;17.90;;;13.00;;
75340;SDS011;64091;47.562;18.920;2022-11-02T03:51:49;20.70;;;14.00;;
75340;SDS011;64091;47.562;18.920;2022-11-02T03:56:45;21.10;;;13.70;;
75340;SDS011;64091;47.562;18.920;2022-11-02T03:59:12;24.60;;;14.10;;
75340;SDS011;64091;47.562;18.920;2022-11-02T04:01:39;24.20;;;14.30;;
75340;SDS011;64091;47.562;18.920;2022-11-02T04:04:06;21.30;;;14.20;;
75340;SDS011;64091;47.562;18.920;2022-11-02T04:06:31;22.70;;;15.00;;
75340;SDS011;64091;47.562;18.920;2022-11-02T04:08:57;20.60;;;14.30;;
75340;SDS011;64091;47.562;18.920;2022-11-02T04:11:23;23.20;;;13.60;;
75340;SDS011;64091;47.562;18.920;2022-11-02T04:14:07;22.00;;;13.50;;
75340;SDS011;64091;47.562;18.920;2022-11-02T04:16:51;22.20;;;14.00;;
75340;SDS011;64091;47.562;18.920;2022-11-02T04:19:36;22.50;;;14.70;;
75340;SDS011;64091;47.562;18.920;2022-11-02T04:22:02;21.00;;;14.50;;
75340;SDS011;64091;47.562;18.920;2022-11-02T04:24:46;20.90;;;13.40;;
75340;SDS011;64091;47.562;18.920;2022-11-02T04:27:31;23.50;;;14.60;;
75340;SDS011;64091;47.562;18.920;2022-11-02T04:29:57;24.30;;;13.90;;
75340;SDS011;64091;47.562;18.920;2022-11-02T04:32:22;20.20;;;13.20;;
75340;SDS011;64091;47.562;18.920;2022-11-02T04:35:06;22.30;;;14.40;;
75340;SDS011;64091;47.562;18.920;2022-11-02T04:37:42;20.40;;;13.50;;
75340;SDS011;64091;47.562;18.920;2022-11-02T04:40:25;22.90;;;13.30;;
75340;SDS011;64091;47.562;18.920;2022-11-02T04:42:51;21.30;;;14.60;;
75340;SDS011;64091;47.562;18.920;2022-11-02T04:45:17;20.60;;;13.80;;
75340;SDS011;64091;47.562;18.920;2022-11-02T04:47:42;24.00;;;15.20;;
75340;SDS011;64091;47.562;18.920;2022-11-02T04:50:08;21.00;;;13.80;;
75340;SDS011;64091;47.562;18.920;2022-11-02T04:52:33;23.20;;;14.70;;
75340;SDS011;64091;47.562;18.920;2022-11-02T04:54:59;18.20;;;13.00;;
75340;SDS011;64091;47.562;18.920;2022-11-02T04:57:24;24.50;;;14.40;;
75340;SDS011;64091;47.562;18.920;2022-11-02T04:59:49;23.60;;;14.50;;
75340;SDS011;64091;47.562;18.920;2022-11-02T05:02:15;22.40;;;14.80;;
75340;SDS011;64091;47.562;18.920;2022-11-02T05:04:40;21.00;;;13.60;;
75340;SDS011;64091;47.562;18.920;2022-11-02T05:07:06;21.30;;;13.90;;
75340;SDS011;64091;47.562;18.920;2022-11-02T05:09:32;25.60;;;16.30;;
75340;SDS011;64091;47.562;18.920;2022-11-02T05:11:58;19.20;;;13.10;;
75340;SDS011;64091;47.562;18.920;2022-11-02T05:14:24;20.80;;;13.90;;
75340;SDS011;64091;47.562;18.920;2022-11-02T05:16:49;21.80;;;14.70;;
75340;SDS011;64091;47.562;18.920;2022-11-02T05:19:14;21.70;;;14.80;;
75340;SDS011;64091;47.562;18.920;2022-11-02T05:21:40;21.30;;;14.00;;
75340;SDS011;64091;47.562;18.920;2022-11-02T05:24:05;20.10;;;14.20;;
75340;SDS011;64091;47.562;18.920;2022-11-02T05:26:31;26.50;;;14.10;;
75340;SDS011;64091;47.562;18.920;2022-11-02T05:28:56;23.10;;;14.10;;
75340;SDS011;64091;47.562;18.920;2022-11-02T05:31:21;23.20;;;14.50;;
75340;SDS011;64091;47.562;18.920;2022-11-02T05:33:47;20.80;;;13.40;;
75340;SDS011;64091;47.562;18.920;2022-11-02T05:36:12;22.70;;;15.00;;
75340;SDS011;64091;47.562;18.920;2022-11-02T05:38:38;22.50;;;14.30;;
75340;SDS011;64091;47.562;18.920;2022-11-02T05:41:03;21.20;;;13.30;;
75340;SDS011;64091;47.562;18.920;2022-11-02T05:43:28;22.40;;;13.40;;
75340;SDS011;64091;47.562;18.920;2022-11-02T05:45:55;20.20;;;13.00;;
75340;SDS011;64091;47.562;18.920;2022-11-02T05:48:22;23.00;;;12.20;;
75340;SDS011;64091;47.562;18.920;2022-11-02T05:50:48;19.10;;;11.10;;
75340;SDS011;64091;47.562;18.920;2022-11-02T05:53:14;19.50;;;13.00;;
75340;SDS011;64091;47.562;18.920;2022-11-02T05:55:40;19.50;;;12.00;;
75340;SDS011;64091;47.562;18.920;2022-11-02T05:58:06;18.50;;;11.70;;
75340;SDS011;64091;47.562;18.920;2022-11-02T06:00:31;20.30;;;12.80;;
75340;SDS011;64091;47.562;18.920;2022-11-02T06:02:57;20.50;;;11.40;;
75340;SDS011;64091;47.562;18.920;2022-11-02T06:05:23;17.20;;;10.40;;
75340;SDS011;64091;47.562;18.920;2022-11-02T06:07:49;17.00;;;11.20;;
75340;SDS011;64091;47.562;18.920;2022-11-02T06:10:15;17.10;;;11.60;;
75340;SDS011;64091;47.562;18.920;2022-11-02T06:12:40;19.20;;;11.30;;
75340;SDS011;64091;47.562;18.920;2022-11-02T06:15:07;16.80;;;11.50;;
75340;SDS011;64091;47.562;18.920;2022-11-02T06:17:39;15.10;;;9.40;;
75340;SDS011;64091;47.562;18.920;2022-11-02T06:20:05;16.60;;;10.50;;
75340;SDS011;64091;47.562;18.920;2022-11-02T06:22:38;16.00;;;10.60;;
75340;SDS011;64091;47.562;18.920;2022-11-02T06:25:06;17.20;;;10.00;;
75340;SDS011;64091;47.562;18.920;2022-11-02T06:27:32;17.20;;;10.10;;
75340;SDS011;64091;47.562;18.920;2022-11-02T06:29:57;18.40;;;11.00;;
75340;SDS011;64091;47.562;18.920;2022-11-02T06:32:23;15.10;;;10.40;;
75340;SDS011;64091;47.562;18.920;2022-11-02T06:34:48;15.30;;;10.00;;
75340;SDS011;64091;47.562;18.920;2022-11-02T06:37:14;14.00;;;8.70;;
75340;SDS011;64091;47.562;18.920;2022-11-02T06:39:39;16.30;;;10.10;;
75340;SDS011;64091;47.562;18.920;2022-11-02T06:42:05;14.80;;;10.00;;
75340;SDS011;64091;47.562;18.920;2022-11-02T06:44:30;15.90;;;9.10;;
75340;SDS011;64091;47.562;18.920;2022-11-02T06:46:55;13.70;;;8.80;;
75340;SDS011;64091;47.562;18.920;2022-11-02T06:49:21;16.10;;;9.70;;
75340;SDS011;64091;47.562;18.920;2022-11-02T06:51:49;14.70;;;9.20;;
75340;SDS011;64091;47.562;18.920;2022-11-02T06:54:15;15.20;;;9.70;;
75340;SDS011;64091;47.562;18.920;2022-11-02T06:56:40;26.40;;;16.70;;
75340;SDS011;64091;47.562;18.920;2022-11-02T06:59:06;30.50;;;22.30;;
75340;SDS011;64091;47.562;18.920;2022-11-02T07:01:31;14.80;;;10.40;;
75340;SDS011;64091;47.562;18.920;2022-11-02T07:03:56;24.20;;;16.80;;
75340;SDS011;64091;47.562;18.920;2022-11-02T07:06:22;19.70;;;12.70;;
75340;SDS011;64091;47.562;18.920;2022-11-02T07:08:47;16.40;;;11.30;;
75340;SDS011;64091;47.562;18.920;2022-11-02T07:11:14;19.00;;;14.00;;
75340;SDS011;64091;47.562;18.920;2022-11-02T07:13:42;18.70;;;11.60;;
75340;SDS011;64091;47.562;18.920;2022-11-02T07:16:08;17.80;;;11.60;;
75340;SDS011;64091;47.562;18.920;2022-11-02T07:18:33;14.80;;;10.60;;
75340;SDS011;64091;47.562;18.920;2022-11-02T07:20:59;17.70;;;10.20;;
75340;SDS011;64091;47.562;18.920;2022-11-02T07:23:24;19.70;;;10.20;;
75340;SDS011;64091;47.562;18.920;2022-11-02T07:25:50;15.20;;;10.10;;
75340;SDS011;64091;47.562;18.920;2022-11-02T07:28:15;16.60;;;9.40;;
75340;SDS011;64091;47.562;18.920;2022-11-02T07:30:41;16.50;;;10.80;;
75340;SDS011;64091;47.562;18.920;2022-11-02T07:33:06;17.80;;;11.30;;
75340;SDS011;64091;47.562;18.920;2022-11-02T07:35:32;16.50;;;10.80;;
75340;SDS011;64091;47.562;18.920;2022-11-02T07:37:59;15.40;;;9.50;;
75340;SDS011;64091;47.562;18.920;2022-11-02T07:40:26;16.80;;;10.50;;
75340;SDS011;64091;47.562;18.920;2022-11-02T07:42:52;19.80;;;10.50;;
75340;SDS011;64091;47.562;18.920;2022-11-02T07:45:18;16.00;;;10.80;;
75340;SDS011;64091;47.562;18.920;2022-11-02T07:47:47;16.30;;;11.10;;
75340;SDS011;64091;47.562;18.920;2022-11-02T07:50:14;18.00;;;12.20;;
75340;SDS011;64091;47.562;18.920;2022-11-02T07:52:47;20.90;;;12.80;;
75340;SDS011;64091;47.562;18.920;2022-11-02T07:55:14;18.40;;;11.50;;
75340;SDS011;64091;47.562;18.920;2022-11-02T07:57:40;16.80;;;11.10;;
75340;SDS011;64091;47.562;18.920;2022-11-02T08:00:08;25.70;;;18.50;;
75340;SDS011;64091;47.562;18.920;2022-11-02T08:02:35;18.90;;;12.00;;
75340;SDS011;64091;47.562;18.920;2022-11-02T08:05:01;17.00;;;11.00;;
75340;SDS011;64091;47.562;18.920;2022-11-02T08:07:26;16.10;;;10.80;;
75340;SDS011;64091;47.562;18.920;2022-11-02T08:09:52;16.20;;;11.50;;
75340;SDS011;64091;47.562;18.920;2022-11-02T08:12:17;16.00;;;10.40;;
75340;SDS011;64091;47.562;18.920;2022-11-02T08:14:42;19.80;;;11.40;;
75340;SDS011;64091;47.562;18.920;2022-11-02T08:17:08;15.70;;;12.20;;
75340;SDS011;64091;47.562;18.920;2022-11-02T08:19:33;15.10;;;10.70;;
75340;SDS011;64091;47.562;18.920;2022-11-02T08:21:59;16.30;;;11.60;;
75340;SDS011;64091;47.562;18.920;2022-11-02T08:24:24;18.60;;;11.20;;
75340;SDS011;64091;47.562;18.920;2022-11-02T08:26:49;18.50;;;12.80;;
75340;SDS011;64091;47.562;18.920;2022-11-02T08:29:15;18.50;;;11.30;;
75340;SDS011;64091;47.562;18.920;2022-11-02T08:31:40;18.00;;;12.50;;
75340;SDS011;64091;47.562;18.920;2022-11-02T08:34:05;19.10;;;12.40;;
75340;SDS011;64091;47.562;18.920;2022-11-02T08:36:33;15.20;;;11.40;;
75340;SDS011;64091;47.562;18.920;2022-11-02T08:38:59;17.70;;;11.10;;
75340;SDS011;64091;47.562;18.920;2022-11-02T08:41:25;15.00;;;9.90;;
75340;SDS011;64091;47.562;18.920;2022-11-02T08:43:50;14.20;;;10.20;;
75340;SDS011;64091;47.562;18.920;2022-11-02T08:46:16;15.30;;;10.60;;
75340;SDS011;64091;47.562;18.920;2022-11-02T08:48:41;14.40;;;10.20;;
75340;SDS011;64091;47.562;18.920;2022-11-02T08:51:06;15.50;;;9.70;;
75340;SDS011;64091;47.562;18.920;2022-11-02T08:56:00;12.60;;;9.40;;
75340;SDS011;64091;47.562;18.920;2022-11-02T08:58:25;13.60;;;9.40;;
75340;SDS011;64091;47.562;18.920;2022-11-02T09:00:54;18.40;;;10.30;;
75340;SDS011;64091;47.562;18.920;2022-11-02T09:03:20;15.60;;;9.80;;
75340;SDS011;64091;47.562;18.920;2022-11-02T09:05:48;13.20;;;9.70;;
75340;SDS011;64091;47.562;18.920;2022-11-02T09:08:18;12.80;;;9.90;;
75340;SDS011;64091;47.562;18.920;2022-11-02T09:10:46;15.50;;;9.80;;
75340;SDS011;64091;47.562;18.920;2022-11-02T09:13:14;11.70;;;8.00;;
75340;SDS011;64091;47.562;18.920;2022-11-02T09:15:39;10.20;;;7.30;;
75340;SDS011;64091;47.562;18.920;2022-11-02T09:18:05;12.50;;;7.90;;
75340;SDS011;64091;47.562;18.920;2022-11-02T09:20:31;13.30;;;8.50;;
75340;SDS011;64091;47.562;18.920;2022-11-02T09:22:57;13.30;;;7.90;;
75340;SDS011;64091;47.562;18.920;2022-11-02T09:25:22;13.80;;;8.00;;
75340;SDS011;64091;47.562;18.920;2022-11-02T09:27:51;15.00;;;8.60;;
75340;SDS011;64091;47.562;18.920;2022-11-02T09:30:18;12.40;;;7.50;;
75340;SDS011;64091;47.562;18.920;2022-11-02T09:32:43;11.40;;;7.10;;
75340;SDS011;64091;47.562;18.920;2022-11-02T09:35:10;12.10;;;7.10;;
75340;SDS011;64091;47.562;18.920;2022-11-02T09:37:36;9.80;;;7.30;;
75340;SDS011;64091;47.562;18.920;2022-11-02T09:40:04;13.30;;;7.00;;
75340;SDS011;64091;47.562;18.920;2022-11-02T09:45:11;13.00;;;7.00;;
75340;SDS011;64091;47.562;18.920;2022-11-02T09:47:46;13.30;;;6.90;;
75340;SDS011;64091;47.562;18.920;2022-11-02T09:50:21;11.90;;;7.20;;
75340;SDS011;64091;47.562;18.920;2022-11-02T09:52:55;11.20;;;7.70;;
75340;SDS011;64091;47.562;18.920;2022-11-02T09:55:25;11.20;;;7.10;;
75340;SDS011;64091;47.562;18.920;2022-11-02T09:57:54;12.40;;;7.90;;
75340;SDS011;64091;47.562;18.920;2022-11-02T10:00:25;11.00;;;6.70;;
75340;SDS011;64091;47.562;18.920;2022-11-02T10:03:10;11.80;;;7.70;;
75340;SDS011;64091;47.562;18.920;2022-11-02T10:05:51;11.80;;;7.80;;
75340;SDS011;64091;47.562;18.920;2022-11-02T10:08:36;12.30;;;7.70;;
75340;SDS011;64091;47.562;18.920;2022-11-02T10:13:41;12.00;;;8.20;;
75340;SDS011;64091;47.562;18.920;2022-11-02T10:16:21;13.50;;;8.10;;
75340;SDS011;64091;47.562;18.920;2022-11-02T10:18:54;12.10;;;8.30;;
75340;SDS011;64091;47.562;18.920;2022-11-02T10:21:31;14.90;;;8.70;;
75340;SDS011;64091;47.562;18.920;2022-11-02T10:23:58;12.20;;;8.40;;
75340;SDS011;64091;47.562;18.920;2022-11-02T10:26:28;14.20;;;9.00;;
75340;SDS011;64091;47.562;18.920;2022-11-02T10:29:02;11.70;;;9.00;;
75340;SDS011;64091;47.562;18.920;2022-11-02T10:31:33;12.50;;;8.60;;
75340;SDS011;64091;47.562;18.920;2022-11-02T10:34:00;14.20;;;8.10;;
75340;SDS011;64091;47.562;18.920;2022-11-02T10:47:30;13.70;;;8.30;;
75340;SDS011;64091;47.562;18.920;2022-11-02T10:52:59;11.70;;;8.30;;
75340;SDS011;64091;47.562;18.920;2022-11-02T10:55:28;13.90;;;8.30;;
75340;SDS011;64091;47.562;18.920;2022-11-02T10:58:05;13.60;;;9.50;;
75340;SDS011;64091;47.562;18.920;2022-11-02T11:00:34;15.60;;;10.80;;
75340;SDS011;64091;47.562;18.920;2022-11-02T11:05:28;13.90;;;11.00;;
75340;SDS011;64091;47.562;18.920;2022-11-02T11:07:53;15.10;;;11.60;;
75340;SDS011;64091;47.562;18.920;2022-11-02T11:10:20;16.00;;;16.20;;
75340;SDS011;64091;47.562;18.920;2022-11-02T11:15:23;15.90;;;11.30;;
75340;SDS011;64091;47.562;18.920;2022-11-02T11:20:29;16.50;;;11.80;;
75340;SDS011;64091;47.562;18.920;2022-11-02T11:23:07;19.00;;;10.90;;
75340;SDS011;64091;47.562;18.920;2022-11-02T11:28:24;15.60;;;11.60;;
75340;SDS011;64091;47.562;18.920;2022-11-02T11:33:43;15.00;;;11.60;;
75340;SDS011;64091;47.562;18.920;2022-11-02T11:36:09;16.10;;;11.20;;
75340;SDS011;64091;47.562;18.920;2022-11-02T11:38:35;17.10;;;12.50;;
75340;SDS011;64091;47.562;18.920;2022-11-02T11:41:01;17.10;;;11.80;;
75340;SDS011;64091;47.562;18.920;2022-11-02T11:43:29;14.40;;;11.40;;
75340;SDS011;64091;47.562;18.920;2022-11-02T11:48:29;15.30;;;10.70;;
75340;SDS011;64091;47.562;18.920;2022-11-02T11:50:59;16.00;;;11.00;;
75340;SDS011;64091;47.562;18.920;2022-11-02T11:53:26;15.40;;;10.70;;
75340;SDS011;64091;47.562;18.920;2022-11-02T11:55:55;14.60;;;10.50;;
75340;SDS011;64091;47.562;18.920;2022-11-02T11:58:23;21.00;;;11.50;;
75340;SDS011;64091;47.562;18.920;2022-11-02T12:09:20;15.20;;;11.40;;
75340;SDS011;64091;47.562;18.920;2022-11-02T12:23:01;16.60;;;11.10;;
75340;SDS011;64091;47.562;18.920;2022-11-02T12:28:21;16.70;;;10.00;;
75340;SDS011;64091;47.562;18.920;2022-11-02T12:33:48;15.20;;;10.00;;
75340;SDS011;64091;47.562;18.920;2022-11-02T12:39:21;17.90;;;9.20;;
75340;SDS011;64091;47.562;18.920;2022-11-02T12:47:59;10.70;;;6.40;;
75340;SDS011;64091;47.562;18.920;2022-11-02T12:54:06;8.90;;;5.40;;
75340;SDS011;64091;47.562;18.920;2022-11-02T12:56:21;7.20;;;4.60;;
75340;SDS011;64091;47.562;18.920;2022-11-02T12:58:55;9.50;;;4.50;;
75340;SDS011;64091;47.562;18.920;2022-11-02T13:01:33;7.30;;;3.00;;
75340;SDS011;64091;47.562;18.920;2022-11-02T13:04:08;5.20;;;3.00;;
75340;SDS011;64091;47.562;18.920;2022-11-02T13:06:47;5.20;;;3.40;;
75340;SDS011;64091;47.562;18.920;2022-11-02T13:11:54;5.80;;;2.80;;
75340;SDS011;64091;47.562;18.920;2022-11-02T13:14:45;5.00;;;2.30;;
75340;SDS011;64091;47.562;18.920;2022-11-02T13:17:26;4.00;;;2.10;;
75340;SDS011;64091;47.562;18.920;2022-11-02T13:20:26;4.70;;;2.10;;
75340;SDS011;64091;47.562;18.920;2022-11-02T13:23:01;4.40;;;2.50;;
75340;SDS011;64091;47.562;18.920;2022-11-02T13:25:39;4.60;;;2.40;;
75340;SDS011;64091;47.562;18.920;2022-11-02T13:31:04;6.90;;;3.30;;
75340;SDS011;64091;47.562;18.920;2022-11-02T13:33:35;4.50;;;2.60;;
75340;SDS011;64091;47.562;18.920;2022-11-02T13:36:08;5.20;;;2.40;;
75340;SDS011;64091;47.562;18.920;2022-11-02T13:38:35;4.70;;;2.80;;
75340;SDS011;64091;47.562;18.920;2022-11-02T13:52:04;7.40;;;3.80;;
75340;SDS011;64091;47.562;18.920;2022-11-02T13:54:38;7.90;;;4.40;;
75340;SDS011;64091;47.562;18.920;2022-11-02T13:57:05;6.10;;;4.20;;
75340;SDS011;64091;47.562;18.920;2022-11-02T13:59:31;9.00;;;3.60;;
75340;SDS011;64091;47.562;18.920;2022-11-02T14:02:05;6.90;;;3.50;;
75340;SDS011;64091;47.562;18.920;2022-11-02T14:04:37;5.90;;;3.60;;
75340;SDS011;64091;47.562;18.920;2022-11-02T14:07:05;6.70;;;3.90;;
75340;SDS011;64091;47.562;18.920;2022-11-02T14:14:44;8.10;;;4.60;;
75340;SDS011;64091;47.562;18.920;2022-11-02T14:22:09;8.20;;;5.70;;
75340;SDS011;64091;47.562;18.920;2022-11-02T14:49:26;8.30;;;4.50;;
75340;SDS011;64091;47.562;18.920;2022-11-02T14:52:04;7.00;;;4.10;;
75340;SDS011;64091;47.562;18.920;2022-11-02T14:57:41;8.30;;;3.50;;
75340;SDS011;64091;47.562;18.920;2022-11-02T15:00:19;6.50;;;3.80;;
75340;SDS011;64091;47.562;18.920;2022-11-02T15:02:49;6.10;;;3.20;;
75340;SDS011;64091;47.562;18.920;2022-11-02T15:05:33;9.70;;;3.70;;
75340;SDS011;64091;47.562;18.920;2022-11-02T15:08:02;8.20;;;4.00;;
75340;SDS011;64091;47.562;18.920;2022-11-02T15:18:34;8.80;;;3.90;;
75340;SDS011;64091;47.562;18.920;2022-11-02T15:23:43;8.00;;;4.70;;
75340;SDS011;64091;47.562;18.920;2022-11-02T15:29:30;8.10;;;4.30;;
75340;SDS011;64091;47.562;18.920;2022-11-02T15:31:58;9.50;;;4.90;;
75340;SDS011;64091;47.562;18.920;2022-11-02T15:37:23;8.50;;;4.60;;
75340;SDS011;64091;47.562;18.920;2022-11-02T15:39:51;8.70;;;5.10;;
75340;SDS011;64091;47.562;18.920;2022-11-02T15:45:19;8.50;;;5.30;;
75340;SDS011;64091;47.562;18.920;2022-11-02T15:47:55;7.80;;;4.80;;
75340;SDS011;64091;47.562;18.920;2022-11-02T15:56:24;10.70;;;5.30;;
75340;SDS011;64091;47.562;18.920;2022-11-02T16:04:54;13.90;;;6.70;;
75340;SDS011;64091;47.562;18.920;2022-11-02T16:09:48;11.10;;;6.50;;
75340;SDS011;64091;47.562;18.920;2022-11-02T16:15:09;9.70;;;6.40;;
75340;SDS011;64091;47.562;18.920;2022-11-02T16:23:04;12.60;;;8.10;;
75340;SDS011;64091;47.562;18.920;2022-11-02T16:25:38;12.80;;;7.30;;
75340;SDS011;64091;47.562;18.920;2022-11-02T16:28:22;10.80;;;6.50;;
75340;SDS011;64091;47.562;18.920;2022-11-02T16:33:37;14.10;;;8.60;;
75340;SDS011;64091;47.562;18.920;2022-11-02T16:36:20;17.10;;;13.70;;
75340;SDS011;64091;47.562;18.920;2022-11-02T16:38:56;15.90;;;10.00;;
75340;SDS011;64091;47.562;18.920;2022-11-02T16:41:27;10.70;;;6.60;;
75340;SDS011;64091;47.562;18.920;2022-11-02T16:47:19;12.70;;;7.30;;
75340;SDS011;64091;47.562;18.920;2022-11-02T16:50:17;16.50;;;9.20;;
75340;SDS011;64091;47.562;18.920;2022-11-02T16:52:53;15.40;;;8.30;;
75340;SDS011;64091;47.562;18.920;2022-11-02T16:55:35;14.10;;;9.30;;
75340;SDS011;64091;47.562;18.920;2022-11-02T16:58:05;14.30;;;9.70;;
75340;SDS011;64091;47.562;18.920;2022-11-02T17:00:32;12.70;;;8.80;;
75340;SDS011;64091;47.562;18.920;2022-11-02T17:03:04;17.30;;;12.50;;
75340;SDS011;64091;47.562;18.920;2022-11-02T17:05:31;20.70;;;15.70;;
75340;SDS011;64091;47.562;18.920;2022-11-02T17:10:26;14.40;;;10.40;;
75340;SDS011;64091;47.562;18.920;2022-11-02T17:12:53;18.60;;;10.70;;
75340;SDS011;64091;47.562;18.920;2022-11-02T17:15:21;16.40;;;9.00;;
75340;SDS011;64091;47.562;18.920;2022-11-02T17:17:49;12.50;;;7.90;;
75340;SDS011;64091;47.562;18.920;2022-11-02T17:20:17;12.70;;;7.80;;
75340;SDS011;64091;47.562;18.920;2022-11-02T17:27:45;11.60;;;7.70;;
75340;SDS011;64091;47.562;18.920;2022-11-02T17:33:12;17.90;;;11.00;;
75340;SDS011;64091;47.562;18.920;2022-11-02T17:35:46;12.20;;;8.60;;
75340;SDS011;64091;47.562;18.920;2022-11-02T17:38:13;12.20;;;7.90;;
75340;SDS011;64091;47.562;18.920;2022-11-02T17:40:38;15.60;;;8.60;;
75340;SDS011;64091;47.562;18.920;2022-11-02T17:43:04;11.80;;;8.80;;
75340;SDS011;64091;47.562;18.920;2022-11-02T17:48:03;12.80;;;7.70;;
75340;SDS011;64091;47.562;18.920;2022-11-02T17:50:30;11.50;;;7.40;;
75340;SDS011;64091;47.562;18.920;2022-11-02T17:52:57;12.70;;;7.20;;
75340;SDS011;64091;47.562;18.920;2022-11-02T17:55:24;12.80;;;7.40;;
75340;SDS011;64091;47.562;18.920;2022-11-02T17:57:52;11.50;;;7.80;;
75340;SDS011;64091;47.562;18.920;2022-11-02T18:00:18;9.20;;;5.80;;
75340;SDS011;64091;47.562;18.920;2022-11-02T18:02:51;11.50;;;7.20;;
75340;SDS011;64091;47.562;18.920;2022-11-02T18:08:00;13.00;;;6.20;;
75340;SDS011;64091;47.562;18.920;2022-11-02T18:10:27;12.10;;;7.20;;